Portada
METAR-TAF:

METAR-TAF

Aeroports :

Manado, Indonèsia

latitud: 01-32N, longitud: 124-55E, altitud: 80 m

Observació

L'informe es va fer fa 27 minuts, a les 16:00 UTC
Vent 1 kt amb direcció variable
Temperatura 25°C
Humitat 94%
Pressió 1010 hPa
Visibilitat 10 km o més
Escasses núvols a una alçada de 2200 ft

METAR: WAMM 071600Z VRB01KT 9999 FEW022 25/24 Q1010 NOSIG

Hora: 23:27 (16:27 UTC)

Pronòstic

L'informe es va fer fa 5 hores i 27 minuts, a les 11:00 UTC
Pronòstic vàlid del 07 a les 12 UTC al 08 a les 18 UTC
Vent 8 kt del Oest/Nord-Oest
Visibilitat 10 km o més
Núvols disperses a una alçada de 2200 ft

TAF: WAMM 071100Z 0712/0818 30008KT 9999 SCT022

Observacions i pronòstics meteorològics de més de 4000 aeroports (METAR i TAF).

Les estacions disponibles són els punts grocs i vermells al mapa.

Posi el ratolí al punt desitjat per veure el nom de l'estació.

Feu clic per veure les observacions i els pronòstics meteorològics.

Per canviar el mapa: feu clic els botons verds amb una creu de color negre per apropar; al botó verd amb un guió per allunyar la imatge; o en les fletxes verdes per a mapes adjacents.


METAR-TAF: